Aérodrome :
LOGIN :

S'inscrire | Disclaimer

   EN    FR    IT 

 










Légende :    VFR   VFR Marginal   IFR   IFR Intensif   IFR Très Intensif
Visi : 
Plafond : 
>= 8 km
>= 3000ft
5 à 8 km
1000 à 3000 ft
1500m à 5 km
500 à 1000 ft
800 à 1500m
200 à 500 ft
< 800m
< 200 ft
Symboles :   Orages  Brouillard  Fortes neiges  Fortes précipitations  Vent > 20 kt
SIGMETs :   Divers  Orages  Givrage  Turbulence  Onde Orograph.  Cendres Volcan.







- Altitude de l'aérodrome : 776 ft
- Code IATA : RMS


ETAR - Ramstein Air Base

DERNIER METAR :
  • 211656Z AUTO 08005KT 9999 CLR 20/05 A2999 RMK AO2 SLP161 T02030047 $

METARs EXPIRÉS :
  • 211556Z AUTO 07008KT 9999 CLR 23/04 A3000 RMK AO2 SLP163 T02290039 $
  • 211456Z AUTO 06010KT 9999 CLR 24/04 A3002 RMK AO2 SLP167 T02380037 57020 $

TAF TAF ETAR
Valide du 21 à 10h jusqu'au 22 à 16h UTC


211021Z 2110/2216 VRB06KT 9999 SKC QNH3012INS
TEMPO 2110/2116 09010G15KT
BECMG 2115/2116 VRB06KT 9999 SKC QNH3003INS
BECMG 2206/2207 VRB06KT 9999 BKN060 QNH2993INS TX22/2113Z TN00/2202Z
Pas de NOTAMs connus pour ce terrain.



MET'MAP, la Météo Aéronautique d'un coup d'oeil ! - Copyright ORBIFLY Décembre 2007 - Disclaimer

ORBIFLY MET'MAP TEAM :

Programmation & Développement : Alexandra Zaïnal
Conception & Développement : Baudouin d'Aumeries
Co-Programmation & Développement : Marc-Olivier Méhu
Soutien technique & logistique : Manuel Goepfert

Contact : metmap@orbifly.com




SOURCES & CREDITS :

   NOAA